Time;durP1;ratioP1;P1;durP2;ratioP2;P2;SDS_P1;SDS_P2;PMS_P1;PMS_P2;Temp;Humidity;BMP_temperature;BMP_pressure;BME280_temperature;BME280_humidity;BME280_pressure;Samples;Min_cycle;Max_cycle;Signal;HPM_P1;HPM_P2
2023/08/24 00:00:14;;;;;;;26.30;10.10;;;;;;;;;;5030550;28;20033;-74
2023/08/24 00:02:40;;;;;;;21.83;10.20;;;;;;;;;;5027777;28;20475;-74
2023/08/24 00:05:06;;;;;;;18.77;9.60;;;;;;;;;;5030638;28;20025;-74
2023/08/24 00:07:32;;;;;;;21.02;9.63;;;;;;;;;;5030113;28;20103;-74
2023/08/24 00:09:58;;;;;;;22.35;9.70;;;;;;;;;;5030616;28;20488;-73
2023/08/24 00:12:25;;;;;;;18.70;9.93;;;;;;;;;;5030378;28;20030;-73
2023/08/24 00:14:52;;;;;;;24.50;9.75;;;;;;;;;;5030613;28;20021;-74
2023/08/24 00:17:18;;;;;;;22.00;9.13;;;;;;;;;;5031185;28;20027;-74
2023/08/24 00:19:44;;;;;;;17.50;9.60;;;;;;;;;;5031384;28;20029;-73
2023/08/24 00:22:10;;;;;;;15.77;9.60;;;;;;;;;;5031089;28;20368;-73
2023/08/24 00:24:36;;;;;;;20.67;9.27;;;;;;;;;;5031197;28;20037;-73
2023/08/24 00:27:01;;;;;;;22.35;9.60;;;;;;;;;;5030807;28;20129;-74
2023/08/24 00:29:27;;;;;;;19.73;9.82;;;;;;;;;;5030858;28;20033;-73
2023/08/24 00:31:53;;;;;;;22.98;9.43;;;;;;;;;;5030147;28;20105;-72
2023/08/24 00:34:19;;;;;;;16.70;9.55;;;;;;;;;;5034971;28;20472;-73
2023/08/24 00:36:46;;;;;;;19.25;9.88;;;;;;;;;;5034481;28;20057;-73
2023/08/24 00:39:12;;;;;;;18.48;10.00;;;;;;;;;;5034477;28;20029;-74
2023/08/24 00:41:38;;;;;;;22.67;10.02;;;;;;;;;;5037925;28;20026;-74
2023/08/24 00:44:04;;;;;;;19.48;10.32;;;;;;;;;;5039076;28;20056;-73
2023/08/24 00:46:30;;;;;;;24.95;10.10;;;;;;;;;;5035349;28;20032;-74
2023/08/24 00:48:59;;;;;;;20.20;9.40;;;;;;;;;;5034200;28;20036;-74
2023/08/24 00:51:25;;;;;;;22.08;10.38;;;;;;;;;;5034243;28;20022;-73
2023/08/24 00:53:51;;;;;;;20.27;11.13;;;;;;;;;;5033745;28;20021;-74
2023/08/24 00:56:19;;;;;;;18.98;10.70;;;;;;;;;;5034366;28;20390;-73
2023/08/24 00:58:47;;;;;;;24.55;11.80;;;;;;;;;;5033544;28;20052;-74
2023/08/24 01:01:13;;;;;;;22.65;11.20;;;;;;;;;;5034166;28;20107;-74
2023/08/24 01:03:39;;;;;;;19.65;10.77;;;;;;;;;;5033397;28;20472;-74
2023/08/24 01:06:05;;;;;;;17.55;9.45;;;;;;;;;;5033846;28;20034;-72
2023/08/24 01:08:31;;;;;;;22.30;10.40;;;;;;;;;;5033981;28;20036;-72
2023/08/24 01:11:05;;;;;;;18.50;10.30;;;;;;;;;;5034171;28;20025;-73
2023/08/24 01:13:41;;;;;;;20.67;10.82;;;;;;;;;;5033071;28;20112;-72
2023/08/24 01:16:40;;;;;;;20.08;10.63;;;;;;;;;;5034155;28;20032;-74
2023/08/24 01:19:11;;;;;;;21.55;10.38;;;;;;;;;;5026413;28;20384;-73
2023/08/24 01:21:37;;;;;;;22.73;11.90;;;;;;;;;;5038155;28;20246;-74
2023/08/24 01:24:28;;;;;;;25.50;11.57;;;;;;;;;;5036597;28;20017;-73
2023/08/24 01:26:55;;;;;;;23.25;10.45;;;;;;;;;;5034395;28;20025;-73
2023/08/24 01:29:21;;;;;;;23.52;11.32;;;;;;;;;;5036344;28;20029;-73
2023/08/24 01:31:49;;;;;;;16.88;10.38;;;;;;;;;;5032742;28;20161;-73
2023/08/24 01:34:15;;;;;;;23.92;11.13;;;;;;;;;;5020888;28;20075;-74
2023/08/24 01:36:41;;;;;;;22.65;10.27;;;;;;;;;;5030251;28;20124;-75
2023/08/24 01:39:25;;;;;;;20.48;10.55;;;;;;;;;;5027092;28;20028;-74
2023/08/24 01:41:52;;;;;;;21.50;10.48;;;;;;;;;;5024618;28;20029;-75
2023/08/24 01:44:20;;;;;;;21.10;9.40;;;;;;;;;;5025335;28;20064;-73
2023/08/24 01:46:48;;;;;;;17.40;9.43;;;;;;;;;;5028602;28;20033;-73
2023/08/24 01:49:15;;;;;;;18.30;9.75;;;;;;;;;;5032580;28;20029;-73
2023/08/24 01:51:41;;;;;;;15.00;9.15;;;;;;;;;;5032535;28;20033;-74
2023/08/24 01:54:07;;;;;;;19.83;9.52;;;;;;;;;;5032371;28;20475;-74
2023/08/24 01:56:34;;;;;;;18.05;9.43;;;;;;;;;;5037216;28;20108;-74
2023/08/24 01:59:00;;;;;;;22.70;9.65;;;;;;;;;;5032544;28;20021;-74
2023/08/24 02:01:26;;;;;;;18.35;9.77;;;;;;;;;;5032444;28;20390;-74
2023/08/24 02:03:52;;;;;;;18.05;9.77;;;;;;;;;;5033954;28;20038;-74
2023/08/24 02:06:18;;;;;;;22.92;9.65;;;;;;;;;;5039097;28;20052;-74
2023/08/24 02:08:44;;;;;;;14.32;9.45;;;;;;;;;;5035286;28;20026;-74
2023/08/24 02:11:10;;;;;;;18.67;10.30;;;;;;;;;;5035670;28;20029;-73
2023/08/24 02:13:36;;;;;;;18.23;10.07;;;;;;;;;;5035178;28;20025;-74
2023/08/24 02:16:03;;;;;;;17.75;9.68;;;;;;;;;;5039990;28;20505;-73
2023/08/24 02:18:29;;;;;;;23.33;11.55;;;;;;;;;;5042351;28;20032;-74
2023/08/24 02:20:55;;;;;;;19.58;9.80;;;;;;;;;;5032157;28;20116;-75
2023/08/24 02:23:21;;;;;;;26.70;13.23;;;;;;;;;;5032415;28;20059;-74
2023/08/24 02:25:47;;;;;;;19.02;10.27;;;;;;;;;;5036035;28;20037;-74
2023/08/24 02:28:13;;;;;;;19.60;10.50;;;;;;;;;;5045364;28;20053;-74
2023/08/24 02:30:39;;;;;;;17.80;9.32;;;;;;;;;;5033121;28;20100;-74
2023/08/24 02:33:05;;;;;;;20.95;10.13;;;;;;;;;;5021776;28;20471;-74
2023/08/24 02:35:31;;;;;;;21.65;10.52;;;;;;;;;;5026055;28;20071;-75
2023/08/24 02:37:57;;;;;;;18.23;10.18;;;;;;;;;;5043334;28;20026;-75
2023/08/24 02:40:23;;;;;;;17.67;10.30;;;;;;;;;;5024944;28;20045;-74
2023/08/24 02:42:49;;;;;;;18.10;9.93;;;;;;;;;;5026012;28;20056;-73
2023/08/24 02:45:15;;;;;;;17.05;9.93;;;;;;;;;;5023762;28;20383;-73
2023/08/24 02:47:41;;;;;;;20.65;10.18;;;;;;;;;;5021407;28;20138;-75
2023/08/24 02:50:07;;;;;;;16.63;10.07;;;;;;;;;;5030894;28;20053;-74
2023/08/24 02:52:34;;;;;;;17.27;10.15;;;;;;;;;;5020819;28;20049;-74
2023/08/24 02:55:00;;;;;;;15.23;8.98;;;;;;;;;;5022864;28;20116;-74
2023/08/24 02:57:26;;;;;;;20.00;10.25;;;;;;;;;;5013845;28;20053;-74
2023/08/24 02:59:52;;;;;;;14.40;9.60;;;;;;;;;;5013057;28;20065;-75
2023/08/24 03:02:18;;;;;;;16.25;10.38;;;;;;;;;;5013908;28;20041;-72
2023/08/24 03:04:44;;;;;;;23.10;11.20;;;;;;;;;;5013328;28;20443;-74
2023/08/24 03:07:10;;;;;;;24.90;11.45;;;;;;;;;;5013000;28;20029;-72
2023/08/24 03:09:36;;;;;;;17.17;10.43;;;;;;;;;;5012865;28;20461;-72
2023/08/24 03:12:03;;;;;;;18.02;11.18;;;;;;;;;;5012598;28;20388;-73
2023/08/24 03:14:29;;;;;;;19.35;12.27;;;;;;;;;;5013137;28;20036;-74
2023/08/24 03:16:55;;;;;;;21.20;11.68;;;;;;;;;;5013832;28;20025;-72
2023/08/24 03:19:21;;;;;;;20.95;12.43;;;;;;;;;;5013853;28;20033;-74
2023/08/24 03:21:47;;;;;;;19.88;12.82;;;;;;;;;;5013812;28;20033;-73
2023/08/24 03:24:13;;;;;;;23.35;15.13;;;;;;;;;;5014347;28;20026;-74
2023/08/24 03:26:39;;;;;;;19.17;12.90;;;;;;;;;;5013720;28;20032;-74
2023/08/24 03:29:05;;;;;;;23.52;13.65;;;;;;;;;;5013945;28;20113;-72
2023/08/24 03:31:31;;;;;;;22.88;13.00;;;;;;;;;;5013693;28;20431;-73
2023/08/24 03:33:58;;;;;;;21.48;12.73;;;;;;;;;;5028855;28;20025;-73
2023/08/24 03:36:24;;;;;;;20.58;12.52;;;;;;;;;;5014297;28;20026;-74
2023/08/24 03:38:50;;;;;;;19.90;11.48;;;;;;;;;;5014524;28;20032;-73
2023/08/24 03:41:16;;;;;;;22.90;13.88;;;;;;;;;;5014126;28;20468;-73
2023/08/24 03:43:42;;;;;;;21.05;12.45;;;;;;;;;;5013766;28;20030;-72
2023/08/24 03:46:08;;;;;;;18.35;11.82;;;;;;;;;;5029562;28;20021;-73
2023/08/24 03:48:34;;;;;;;18.17;11.23;;;;;;;;;;5014571;28;20364;-74
2023/08/24 03:51:00;;;;;;;22.13;11.10;;;;;;;;;;5015040;28;20030;-73
2023/08/24 03:53:26;;;;;;;20.52;11.52;;;;;;;;;;5014515;28;20495;-73
2023/08/24 03:55:53;;;;;;;21.77;12.35;;;;;;;;;;5012508;28;20480;-72
2023/08/24 03:58:19;;;;;;;22.10;12.27;;;;;;;;;;5012070;28;20491;-71
2023/08/24 04:00:45;;;;;;;16.90;11.80;;;;;;;;;;5014143;28;20038;-74
2023/08/24 04:03:11;;;;;;;20.65;11.05;;;;;;;;;;5014425;28;20041;-73
2023/08/24 04:05:37;;;;;;;16.05;10.65;;;;;;;;;;5016174;28;20084;-73
2023/08/24 04:08:04;;;;;;;17.08;11.18;;;;;;;;;;5015069;28;20320;-73
2023/08/24 04:10:30;;;;;;;22.70;12.30;;;;;;;;;;5014496;28;20032;-72
2023/08/24 04:12:56;;;;;;;20.60;12.00;;;;;;;;;;5013526;28;20026;-74
2023/08/24 04:15:22;;;;;;;17.40;11.20;;;;;;;;;;5014721;28;20180;-73
2023/08/24 04:17:48;;;;;;;18.10;11.50;;;;;;;;;;5027356;28;20514;-72
2023/08/24 04:20:15;;;;;;;19.92;11.45;;;;;;;;;;5013486;28;20159;-73
2023/08/24 04:22:41;;;;;;;15.20;11.00;;;;;;;;;;5027257;28;20101;-73
2023/08/24 04:25:07;;;;;;;20.05;12.15;;;;;;;;;;5029203;28;20029;-73
2023/08/24 04:27:33;;;;;;;20.02;11.52;;;;;;;;;;5011922;28;20550;-73
2023/08/24 04:30:00;;;;;;;17.65;11.50;;;;;;;;;;5010796;28;20380;-73
2023/08/24 04:32:27;;;;;;;15.77;10.65;;;;;;;;;;5010120;28;20033;-73
2023/08/24 04:34:53;;;;;;;19.75;11.85;;;;;;;;;;5010153;28;20026;-73
2023/08/24 04:37:19;;;;;;;21.55;10.95;;;;;;;;;;5010691;28;20032;-73
2023/08/24 04:39:46;;;;;;;18.05;10.60;;;;;;;;;;5011261;28;20045;-75
2023/08/24 04:42:12;;;;;;;16.08;10.82;;;;;;;;;;5010346;28;20026;-73
2023/08/24 04:44:38;;;;;;;17.88;10.55;;;;;;;;;;5010744;28;20032;-73
2023/08/24 04:47:04;;;;;;;18.58;11.25;;;;;;;;;;5010409;28;20105;-73
2023/08/24 04:49:30;;;;;;;22.33;12.23;;;;;;;;;;5010330;28;20033;-74
2023/08/24 04:51:56;;;;;;;20.27;11.13;;;;;;;;;;5010027;28;20022;-72
2023/08/24 04:54:22;;;;;;;14.82;9.20;;;;;;;;;;5010526;28;20037;-73
2023/08/24 04:56:48;;;;;;;18.45;10.80;;;;;;;;;;5011054;28;20057;-73
2023/08/24 04:59:14;;;;;;;18.25;11.65;;;;;;;;;;5033896;28;20124;-73
2023/08/24 05:01:40;;;;;;;21.88;11.48;;;;;;;;;;5017323;28;20037;-74
2023/08/24 05:04:06;;;;;;;16.60;11.10;;;;;;;;;;5015186;28;20025;-74
2023/08/24 05:06:32;;;;;;;18.70;12.23;;;;;;;;;;5028870;28;20041;-73
2023/08/24 05:08:58;;;;;;;23.60;11.23;;;;;;;;;;5012825;28;20468;-73
2023/08/24 05:11:26;;;;;;;14.55;9.55;;;;;;;;;;5011733;28;20045;-73
2023/08/24 05:13:52;;;;;;;17.52;10.20;;;;;;;;;;5010919;28;20157;-72
2023/08/24 05:16:18;;;;;;;16.60;11.02;;;;;;;;;;5011572;28;20492;-73
2023/08/24 05:18:44;;;;;;;16.70;10.20;;;;;;;;;;5011848;28;20101;-74
2023/08/24 05:21:10;;;;;;;17.35;10.23;;;;;;;;;;5014483;28;20068;-74
2023/08/24 05:23:36;;;;;;;13.70;10.20;;;;;;;;;;5014896;28;20061;-77
2023/08/24 05:26:03;;;;;;;14.27;10.20;;;;;;;;;;5034383;28;20033;-76
2023/08/24 05:28:29;;;;;;;16.88;9.05;;;;;;;;;;5034206;28;20040;-74
2023/08/24 05:30:56;;;;;;;19.15;9.65;;;;;;;;;;5034474;28;20022;-74
2023/08/24 05:33:23;;;;;;;14.82;8.90;;;;;;;;;;5032372;28;20022;-73
2023/08/24 05:35:49;;;;;;;13.35;7.75;;;;;;;;;;5037558;28;20029;-74
2023/08/24 05:38:15;;;;;;;17.33;9.02;;;;;;;;;;5029338;28;20025;-74
2023/08/24 05:40:42;;;;;;;42.50;10.40;;;;;;;;;;5034235;28;20411;-75
2023/08/24 05:43:09;;;;;;;34.42;11.07;;;;;;;;;;5036566;28;20025;-75
2023/08/24 05:45:35;;;;;;;20.13;10.80;;;;;;;;;;5036377;28;20026;-73
2023/08/24 05:48:03;;;;;;;22.85;10.82;;;;;;;;;;5036175;28;20044;-75
2023/08/24 05:50:29;;;;;;;19.70;10.73;;;;;;;;;;5033585;28;20388;-75
2023/08/24 05:52:55;;;;;;;17.38;9.50;;;;;;;;;;5033198;28;20056;-73
2023/08/24 05:55:21;;;;;;;17.67;9.57;;;;;;;;;;5033880;28;20025;-73
2023/08/24 05:57:47;;;;;;;15.20;9.48;;;;;;;;;;5033048;28;20075;-81
2023/08/24 06:00:13;;;;;;;16.33;9.45;;;;;;;;;;5034411;28;20033;-77
2023/08/24 06:02:39;;;;;;;15.07;7.53;;;;;;;;;;5036906;28;20438;-75
2023/08/24 06:05:06;;;;;;;14.18;7.13;;;;;;;;;;5035040;28;20083;-75
2023/08/24 06:07:32;;;;;;;15.35;6.78;;;;;;;;;;5034219;28;20025;-75
2023/08/24 06:09:58;;;;;;;12.60;5.93;;;;;;;;;;5034014;28;20582;-73
2023/08/24 06:12:25;;;;;;;16.08;5.35;;;;;;;;;;5033828;28;20036;-73
2023/08/24 06:14:51;;;;;;;11.10;4.85;;;;;;;;;;5035280;28;20514;-73
2023/08/24 06:17:17;;;;;;;19.52;6.38;;;;;;;;;;5036458;28;20021;-73
2023/08/24 06:19:43;;;;;;;11.18;4.10;;;;;;;;;;5035392;28;20030;-73
2023/08/24 06:22:09;;;;;;;12.07;5.13;;;;;;;;;;5035327;28;20029;-75
2023/08/24 06:24:35;;;;;;;12.82;5.00;;;;;;;;;;5036322;28;20034;-74
2023/08/24 06:27:01;;;;;;;14.30;6.20;;;;;;;;;;5036112;28;20056;-74
2023/08/24 06:29:29;;;;;;;14.05;5.75;;;;;;;;;;5036153;28;20029;-73
2023/08/24 06:31:55;;;;;;;16.27;6.05;;;;;;;;;;5034933;28;20095;-75
2023/08/24 06:34:21;;;;;;;12.52;5.20;;;;;;;;;;5036014;28;20033;-74
2023/08/24 06:36:47;;;;;;;16.95;4.28;;;;;;;;;;5036705;28;20017;-73
2023/08/24 06:39:13;;;;;;;15.63;4.05;;;;;;;;;;5036318;28;20064;-73
2023/08/24 06:41:39;;;;;;;18.23;2.67;;;;;;;;;;5036166;28;20037;-78
2023/08/24 06:44:05;;;;;;;8.57;1.80;;;;;;;;;;5035133;28;20029;-74
2023/08/24 06:46:31;;;;;;;13.48;2.63;;;;;;;;;;5036219;28;20034;-73
2023/08/24 06:48:57;;;;;;;16.15;5.70;;;;;;;;;;5036187;28;20036;-74
2023/08/24 06:51:23;;;;;;;16.55;4.15;;;;;;;;;;5036321;28;20025;-77
2023/08/24 06:53:49;;;;;;;18.83;8.43;;;;;;;;;;5033871;28;20028;-72
2023/08/24 06:56:17;;;;;;;16.60;5.25;;;;;;;;;;5032909;28;20052;-72
2023/08/24 06:58:43;;;;;;;8.35;2.88;;;;;;;;;;5033106;28;20514;-77
2023/08/24 07:01:09;;;;;;;39.15;13.77;;;;;;;;;;5034210;28;20033;-78
2023/08/24 07:03:35;;;;;;;35.97;14.43;;;;;;;;;;5034445;28;20036;-73
2023/08/24 07:06:01;;;;;;;26.90;12.52;;;;;;;;;;5033621;28;20476;-73
2023/08/24 07:08:27;;;;;;;28.17;11.07;;;;;;;;;;5034278;28;20151;-73
2023/08/24 07:10:53;;;;;;;16.65;3.90;;;;;;;;;;5035071;28;20597;-71
2023/08/24 07:13:19;;;;;;;9.40;2.03;;;;;;;;;;5039676;28;20022;-73
2023/08/24 07:15:45;;;;;;;23.10;9.80;;;;;;;;;;5047693;28;20021;-77
2023/08/24 07:18:11;;;;;;;20.83;6.93;;;;;;;;;;5034709;28;20100;-72
2023/08/24 07:20:38;;;;;;;15.95;5.78;;;;;;;;;;5032196;28;20029;-72
2023/08/24 07:23:04;;;;;;;14.60;5.68;;;;;;;;;;5031913;28;20539;-74
2023/08/24 07:25:30;;;;;;;27.63;12.07;;;;;;;;;;5032199;28;20109;-72
2023/08/24 07:27:58;;;;;;;18.77;6.45;;;;;;;;;;5034694;28;20387;-73
2023/08/24 07:30:27;;;;;;;17.35;5.38;;;;;;;;;;5037745;28;20021;-73
2023/08/24 07:32:54;;;;;;;15.85;5.45;;;;;;;;;;5037605;28;20068;-73
2023/08/24 07:35:20;;;;;;;34.85;14.07;;;;;;;;;;5036056;28;20310;-74
2023/08/24 07:37:47;;;;;;;22.70;7.95;;;;;;;;;;5035550;28;20018;-75
2023/08/24 07:40:14;;;;;;;15.50;6.80;;;;;;;;;;5035960;28;20097;-73
2023/08/24 07:42:44;;;;;;;8.63;3.08;;;;;;;;;;5031359;28;20021;-72
2023/08/24 07:45:11;;;;;;;20.13;5.25;;;;;;;;;;5033816;28;20368;-74
2023/08/24 07:47:37;;;;;;;6.88;2.00;;;;;;;;;;5033608;28;20115;-74
2023/08/24 07:50:03;;;;;;;26.15;10.40;;;;;;;;;;5032829;28;20723;-72
2023/08/24 07:52:29;;;;;;;7.00;2.15;;;;;;;;;;5031428;28;20372;-74
2023/08/24 07:54:59;;;;;;;11.00;2.80;;;;;;;;;;5031776;28;20025;-74
2023/08/24 07:57:26;;;;;;;11.65;2.67;;;;;;;;;;5030552;28;20525;-76
2023/08/24 07:59:52;;;;;;;7.53;2.92;;;;;;;;;;5036060;28;20053;-76
2023/08/24 08:02:18;;;;;;;14.27;4.57;;;;;;;;;;5031526;28;20061;-77
2023/08/24 08:04:44;;;;;;;19.38;5.65;;;;;;;;;;5034088;28;20162;-77
2023/08/24 08:07:10;;;;;;;10.45;3.88;;;;;;;;;;5033554;28;20033;-76
2023/08/24 08:09:37;;;;;;;21.05;7.93;;;;;;;;;;5033424;28;20124;-75
2023/08/24 08:12:03;;;;;;;27.98;10.95;;;;;;;;;;5033862;28;20037;-76
2023/08/24 08:14:29;;;;;;;19.70;6.47;;;;;;;;;;5036059;28;20113;-75
2023/08/24 08:16:56;;;;;;;24.25;10.00;;;;;;;;;;5033747;28;20483;-76
2023/08/24 08:19:25;;;;;;;14.00;3.13;;;;;;;;;;5034886;28;20029;-76
2023/08/24 08:21:51;;;;;;;7.25;2.08;;;;;;;;;;5033074;28;20104;-76
2023/08/24 08:24:17;;;;;;;9.10;2.00;;;;;;;;;;5031598;28;20026;-75
2023/08/24 08:26:43;;;;;;;19.48;7.70;;;;;;;;;;5032966;28;20091;-77
2023/08/24 08:29:09;;;;;;;6.40;2.50;;;;;;;;;;5032430;28;20038;-76
2023/08/24 08:31:35;;;;;;;6.72;2.17;;;;;;;;;;5031534;28;20053;-76
2023/08/24 08:34:04;;;;;;;7.10;3.00;;;;;;;;;;5030347;28;20048;-76
2023/08/24 08:36:32;;;;;;;13.45;5.47;;;;;;;;;;5031161;28;20553;-76
2023/08/24 08:38:58;;;;;;;14.80;5.05;;;;;;;;;;5031903;28;20089;-76
2023/08/24 08:41:26;;;;;;;15.90;4.32;;;;;;;;;;5032575;28;20029;-76
2023/08/24 08:43:52;;;;;;;8.75;3.70;;;;;;;;;;5030769;28;20040;-76
2023/08/24 08:46:18;;;;;;;7.50;2.78;;;;;;;;;;5032169;28;20025;-77
2023/08/24 08:48:46;;;;;;;10.00;3.25;;;;;;;;;;5031911;28;20420;-75
2023/08/24 08:51:13;;;;;;;8.40;2.50;;;;;;;;;;5031322;28;20104;-76
2023/08/24 08:53:39;;;;;;;10.48;3.22;;;;;;;;;;5034853;28;20055;-77
2023/08/24 08:56:05;;;;;;;13.40;3.33;;;;;;;;;;5035816;28;20032;-75
2023/08/24 08:58:32;;;;;;;9.32;2.65;;;;;;;;;;5047936;28;20067;-76
2023/08/24 09:01:03;;;;;;;9.60;2.30;;;;;;;;;;5059042;28;20056;-75
2023/08/24 09:03:29;;;;;;;10.23;3.28;;;;;;;;;;5057929;28;20093;-75
2023/08/24 09:05:55;;;;;;;10.90;3.72;;;;;;;;;;5053465;28;20036;-78
2023/08/24 09:08:21;;;;;;;6.90;2.72;;;;;;;;;;5035791;28;20034;-77
2023/08/24 09:10:48;;;;;;;12.07;2.92;;;;;;;;;;5036054;28;20025;-77
2023/08/24 09:13:14;;;;;;;4.63;1.80;;;;;;;;;;5034930;28;20101;-78
2023/08/24 09:15:40;;;;;;;6.88;2.00;;;;;;;;;;5034644;28;20099;-76
2023/08/24 09:18:06;;;;;;;8.18;2.30;;;;;;;;;;5034630;28;20022;-77
2023/08/24 09:20:34;;;;;;;12.40;2.67;;;;;;;;;;5034522;28;20034;-74
2023/08/24 09:23:01;;;;;;;9.13;2.20;;;;;;;;;;5034676;28;20053;-76
2023/08/24 09:25:27;;;;;;;7.60;2.55;;;;;;;;;;5034683;28;20104;-75
2023/08/24 09:27:56;;;;;;;11.23;2.42;;;;;;;;;;5034544;28;20080;-75
2023/08/24 09:30:22;;;;;;;11.65;3.20;;;;;;;;;;5035682;28;20030;-76
2023/08/24 09:32:48;;;;;;;9.80;2.92;;;;;;;;;;5036344;28;20024;-74
2023/08/24 09:35:16;;;;;;;7.35;3.03;;;;;;;;;;5035107;28;20275;-73
2023/08/24 09:37:45;;;;;;;9.80;3.13;;;;;;;;;;5038684;28;20032;-76
2023/08/24 09:40:11;;;;;;;9.90;2.90;;;;;;;;;;5036397;28;20079;-76
2023/08/24 09:42:41;;;;;;;11.82;3.00;;;;;;;;;;5036432;28;20029;-76
2023/08/24 09:45:09;;;;;;;9.27;2.97;;;;;;;;;;5037235;28;20021;-76
2023/08/24 09:47:36;;;;;;;9.85;2.80;;;;;;;;;;5037541;28;20044;-75
2023/08/24 09:50:02;;;;;;;10.50;2.85;;;;;;;;;;5036515;28;20022;-76
2023/08/24 09:52:31;;;;;;;12.70;3.17;;;;;;;;;;5035076;28;20025;-75
2023/08/24 09:55:00;;;;;;;15.65;3.17;;;;;;;;;;5034600;28;20468;-75
2023/08/24 09:57:26;;;;;;;12.35;3.40;;;;;;;;;;5033607;28;20025;-75
2023/08/24 09:59:52;;;;;;;16.42;3.70;;;;;;;;;;5036033;28;20112;-76
2023/08/24 10:02:24;;;;;;;8.75;3.08;;;;;;;;;;5036235;28;20029;-77
2023/08/24 10:04:51;;;;;;;10.00;3.10;;;;;;;;;;5036793;28;20076;-77
2023/08/24 10:07:20;;;;;;;8.00;3.20;;;;;;;;;;5039118;28;20059;-75
2023/08/24 10:09:46;;;;;;;14.05;2.85;;;;;;;;;;5038886;28;20383;-76
2023/08/24 10:12:14;;;;;;;11.35;2.78;;;;;;;;;;5037597;28;20025;-78
2023/08/24 10:14:52;;;;;;;11.57;3.58;;;;;;;;;;5038050;28;20025;-76
2023/08/24 10:17:18;;;;;;;10.23;3.28;;;;;;;;;;5037475;28;20021;-75
2023/08/24 10:19:45;;;;;;;16.98;5.38;;;;;;;;;;5034858;28;20025;-75
2023/08/24 10:22:11;;;;;;;10.95;2.80;;;;;;;;;;5035897;28;20030;-74
2023/08/24 10:24:37;;;;;;;6.95;2.58;;;;;;;;;;5036709;28;20030;-76
2023/08/24 10:27:04;;;;;;;11.52;4.80;;;;;;;;;;5036963;28;20471;-74
2023/08/24 10:29:30;;;;;;;8.75;3.05;;;;;;;;;;5034038;28;20036;-76
2023/08/24 10:31:57;;;;;;;8.90;3.10;;;;;;;;;;5033698;28;20068;-75
2023/08/24 10:34:23;;;;;;;9.70;2.50;;;;;;;;;;5033882;28;20102;-75
2023/08/24 10:36:49;;;;;;;8.50;2.75;;;;;;;;;;5038807;28;20029;-75
2023/08/24 10:39:15;;;;;;;12.68;5.85;;;;;;;;;;5038317;28;20053;-74
2023/08/24 10:41:47;;;;;;;7.07;3.05;;;;;;;;;;5053730;28;20035;-76
2023/08/24 10:44:20;;;;;;;15.57;3.40;;;;;;;;;;5057596;28;20010;-75
2023/08/24 10:47:05;;;;;;;10.68;3.05;;;;;;;;;;5041262;28;20029;-73
2023/08/24 10:49:32;;;;;;;9.38;2.70;;;;;;;;;;5033081;28;20120;-74
2023/08/24 10:51:58;;;;;;;9.02;2.95;;;;;;;;;;5032851;28;20056;-74
2023/08/24 10:54:31;;;;;;;8.35;3.05;;;;;;;;;;5032805;28;20052;-74
2023/08/24 10:56:58;;;;;;;8.77;2.43;;;;;;;;;;5032762;28;20025;-74
2023/08/24 10:59:24;;;;;;;10.05;3.15;;;;;;;;;;5032770;28;20021;-75
2023/08/24 11:01:53;;;;;;;9.48;2.42;;;;;;;;;;5032838;28;20105;-74
2023/08/24 11:04:20;;;;;;;8.73;2.72;;;;;;;;;;5033304;28;20034;-74
2023/08/24 11:06:56;;;;;;;7.75;2.90;;;;;;;;;;5032845;28;20029;-73
2023/08/24 11:09:24;;;;;;;11.23;2.95;;;;;;;;;;5033981;28;20079;-76
2023/08/24 11:12:16;;;;;;;15.20;4.40;;;;;;;;;;5034577;28;20028;-76
2023/08/24 11:14:54;;;;;;;12.93;2.60;;;;;;;;;;5031060;28;20145;-76
2023/08/24 11:17:20;;;;;;;5.90;2.42;;;;;;;;;;5032495;28;20379;-75
2023/08/24 11:19:50;;;;;;;9.82;2.42;;;;;;;;;;5033693;28;20112;-75
2023/08/24 11:22:19;;;;;;;8.30;2.08;;;;;;;;;;5034121;28;20048;-75
2023/08/24 11:24:45;;;;;;;7.07;2.67;;;;;;;;;;5033551;28;20025;-75
2023/08/24 11:27:11;;;;;;;7.47;2.25;;;;;;;;;;5034202;28;20155;-75
2023/08/24 11:29:37;;;;;;;6.72;2.40;;;;;;;;;;5033127;28;20028;-76
2023/08/24 11:32:04;;;;;;;10.13;2.92;;;;;;;;;;5032705;28;20033;-74
2023/08/24 11:34:35;;;;;;;13.00;2.85;;;;;;;;;;5032341;28;20018;-75
2023/08/24 11:37:01;;;;;;;8.18;2.25;;;;;;;;;;5033018;28;20021;-75
2023/08/24 11:39:33;;;;;;;10.57;2.63;;;;;;;;;;5034752;28;20425;-77
2023/08/24 11:42:01;;;;;;;8.75;2.22;;;;;;;;;;5033570;28;20365;-76
2023/08/24 11:44:27;;;;;;;6.47;1.85;;;;;;;;;;5035286;28;20438;-76
2023/08/24 11:46:53;;;;;;;7.80;2.58;;;;;;;;;;5035462;28;20033;-73
2023/08/24 11:49:19;;;;;;;10.38;2.30;;;;;;;;;;5035133;28;20022;-77
2023/08/24 11:51:45;;;;;;;6.78;2.10;;;;;;;;;;5034962;28;20091;-77
2023/08/24 11:54:11;;;;;;;11.88;2.75;;;;;;;;;;5034959;28;20037;-79
2023/08/24 11:56:43;;;;;;;6.38;1.92;;;;;;;;;;5035474;28;20467;-77
2023/08/24 11:59:16;;;;;;;11.88;2.88;;;;;;;;;;5033671;28;20053;-81
2023/08/24 12:01:43;;;;;;;13.38;2.38;;;;;;;;;;5032999;28;20026;-77
2023/08/24 12:04:09;;;;;;;8.13;2.00;;;;;;;;;;5033149;28;20493;-77
2023/08/24 12:06:36;;;;;;;6.72;2.78;;;;;;;;;;5031969;28;20104;-77
2023/08/24 12:09:05;;;;;;;5.05;2.22;;;;;;;;;;5032438;28;20022;-79
2023/08/24 12:11:35;;;;;;;10.23;2.20;;;;;;;;;;5034015;28;20087;-77
2023/08/24 12:14:01;;;;;;;5.75;2.30;;;;;;;;;;5035404;28;20444;-78
2023/08/24 12:16:27;;;;;;;6.45;2.05;;;;;;;;;;5038192;28;20057;-78
2023/08/24 12:18:59;;;;;;;7.53;2.60;;;;;;;;;;5040827;28;20109;-78
2023/08/24 12:21:25;;;;;;;6.90;2.25;;;;;;;;;;5040427;28;20030;-78
2023/08/24 12:23:57;;;;;;;7.55;2.20;;;;;;;;;;5045719;28;20124;-75
2023/08/24 12:26:23;;;;;;;9.38;2.78;;;;;;;;;;5056100;28;20046;-76
2023/08/24 12:28:51;;;;;;;10.05;2.97;;;;;;;;;;5058727;28;20025;-76
2023/08/24 12:31:17;;;;;;;8.95;3.08;;;;;;;;;;5060016;28;20006;-76
2023/08/24 12:33:44;;;;;;;21.13;3.28;;;;;;;;;;5049787;28;20044;-75
2023/08/24 12:36:10;;;;;;;12.63;3.10;;;;;;;;;;5036957;28;20072;-77
2023/08/24 12:38:36;;;;;;;16.98;3.60;;;;;;;;;;5035957;28;20136;-76
2023/08/24 12:41:02;;;;;;;9.50;2.75;;;;;;;;;;5035880;28;20033;-77
2023/08/24 12:43:28;;;;;;;11.52;2.70;;;;;;;;;;5036633;28;20035;-78
2023/08/24 12:45:54;;;;;;;13.02;3.28;;;;;;;;;;5040144;28;20049;-77
2023/08/24 12:48:20;;;;;;;10.23;2.70;;;;;;;;;;5037906;28;20479;-77
2023/08/24 12:50:46;;;;;;;8.00;2.63;;;;;;;;;;5038417;28;20049;-78
2023/08/24 12:53:12;;;;;;;9.95;3.03;;;;;;;;;;5036916;28;20072;-76
2023/08/24 12:55:40;;;;;;;13.50;2.80;;;;;;;;;;5052372;28;20036;-76
2023/08/24 12:58:06;;;;;;;14.95;3.08;;;;;;;;;;5056305;28;20016;-77
2023/08/24 13:00:32;;;;;;;7.88;2.65;;;;;;;;;;5056323;28;20025;-79
2023/08/24 13:02:58;;;;;;;12.60;3.05;;;;;;;;;;5056639;28;20368;-77
2023/08/24 13:05:24;;;;;;;7.47;2.45;;;;;;;;;;5056832;28;20454;-78
2023/08/24 13:07:51;;;;;;;8.63;2.80;;;;;;;;;;5043828;28;20022;-77
2023/08/24 13:10:17;;;;;;;9.68;2.85;;;;;;;;;;5037255;28;20430;-81
2023/08/24 13:12:43;;;;;;;14.73;3.47;;;;;;;;;;5040961;28;20053;-75
2023/08/24 13:15:11;;;;;;;10.15;2.60;;;;;;;;;;5037147;28;20034;-74
2023/08/24 13:17:37;;;;;;;20.48;9.10;;;;;;;;;;5036628;28;20013;-74
2023/08/24 13:20:03;;;;;;;9.85;3.08;;;;;;;;;;5036714;28;20037;-74
2023/08/24 13:22:29;;;;;;;15.18;3.00;;;;;;;;;;5036740;28;20108;-76
2023/08/24 13:24:55;;;;;;;7.72;2.30;;;;;;;;;;5034956;28;20045;-77
2023/08/24 13:27:21;;;;;;;11.05;3.30;;;;;;;;;;5034364;28;20041;-75
2023/08/24 13:29:47;;;;;;;8.23;2.70;;;;;;;;;;5033857;28;20372;-73
2023/08/24 13:32:13;;;;;;;8.18;2.95;;;;;;;;;;5034218;28;20029;-75
2023/08/24 13:34:39;;;;;;;9.35;2.55;;;;;;;;;;5034700;28;20037;-74
2023/08/24 13:37:05;;;;;;;8.98;2.55;;;;;;;;;;5032601;28;20033;-74
2023/08/24 13:39:32;;;;;;;6.22;2.80;;;;;;;;;;5033658;28;20029;-75
2023/08/24 13:41:58;;;;;;;12.15;2.30;;;;;;;;;;5033344;28;20029;-73
2023/08/24 13:44:24;;;;;;;11.38;2.67;;;;;;;;;;5033826;28;20026;-75
2023/08/24 13:46:50;;;;;;;7.32;2.67;;;;;;;;;;5032003;28;20510;-74
2023/08/24 13:49:17;;;;;;;10.43;2.60;;;;;;;;;;5035791;28;20040;-76
2023/08/24 13:51:44;;;;;;;10.77;2.60;;;;;;;;;;5036148;28;20711;-74
2023/08/24 13:54:20;;;;;;;15.45;2.95;;;;;;;;;;5034885;28;20055;-75
2023/08/24 13:56:47;;;;;;;8.20;2.67;;;;;;;;;;5036625;28;20021;-75
2023/08/24 13:59:14;;;;;;;10.85;3.08;;;;;;;;;;5037062;28;20435;-76
2023/08/24 14:01:40;;;;;;;8.10;2.45;;;;;;;;;;5037118;28;20025;-75
2023/08/24 14:04:07;;;;;;;11.07;2.58;;;;;;;;;;5038692;28;20398;-80
2023/08/24 14:06:34;;;;;;;9.52;2.30;;;;;;;;;;5045733;28;20033;-78
2023/08/24 14:09:00;;;;;;;10.07;2.33;;;;;;;;;;5040641;28;20416;-77
2023/08/24 14:11:28;;;;;;;8.63;2.50;;;;;;;;;;5040007;28;20032;-76
2023/08/24 14:13:54;;;;;;;6.70;2.08;;;;;;;;;;5037765;28;20040;-76
2023/08/24 14:16:21;;;;;;;8.02;2.55;;;;;;;;;;5034506;28;20118;-78
2023/08/24 14:18:47;;;;;;;11.85;2.67;;;;;;;;;;5035743;28;20026;-77
2023/08/24 14:21:13;;;;;;;15.25;3.00;;;;;;;;;;5036970;28;20487;-78
2023/08/24 14:23:39;;;;;;;5.43;2.35;;;;;;;;;;5034191;28;20036;-76
2023/08/24 14:26:05;;;;;;;15.85;2.70;;;;;;;;;;5034389;28;20038;-77